createdAt,value
2023-05-10T00:01:00.360Z,99016.02
2023-05-10T00:03:27.584Z,99016.59
2023-05-10T00:05:54.774Z,99011.98
2023-05-10T00:08:22.037Z,99011.83
2023-05-10T00:10:49.825Z,99006.71
2023-05-10T00:13:16.989Z,99012.42
2023-05-10T00:15:44.039Z,99011.30
2023-05-10T00:18:11.705Z,99009.52
2023-05-10T00:20:38.930Z,99009.52
2023-05-10T00:23:06.197Z,99003.65
2023-05-10T00:25:33.455Z,99001.27
2023-05-10T00:28:01.944Z,98999.80
2023-05-10T00:30:28.885Z,98998.80
2023-05-10T00:32:56.128Z,98997.95
2023-05-10T00:35:23.836Z,99000.30
2023-05-10T00:37:51.168Z,99001.36
2023-05-10T00:40:18.503Z,99001.75
2023-05-10T00:42:48.454Z,98998.20
2023-05-10T00:45:15.608Z,98991.69
2023-05-10T00:47:42.908Z,98994.80
2023-05-10T00:50:10.612Z,98985.47
2023-05-10T00:52:37.906Z,98986.11
2023-05-10T00:55:06.835Z,98984.12
2023-05-10T00:57:33.901Z,98978.84
2023-05-10T01:00:02.740Z,98979.30
2023-05-10T01:02:30.164Z,98980.42
2023-05-10T01:04:58.823Z,98978.63
2023-05-10T01:07:26.051Z,98979.14
2023-05-10T01:09:53.415Z,98984.84
2023-05-10T01:12:21.414Z,98988.58
2023-05-10T01:14:49.464Z,98989.00
2023-05-10T01:17:17.334Z,98992.46
2023-05-10T01:19:44.798Z,98992.08
2023-05-10T01:22:20.974Z,98993.96
2023-05-10T01:25:15.758Z,98988.62
2023-05-10T01:27:45.659Z,98987.89
2023-05-10T01:30:31.337Z,98985.71
2023-05-10T01:33:06.566Z,98982.72
2023-05-10T01:35:40.184Z,98981.02
2023-05-10T01:38:30.869Z,98974.73
2023-05-10T01:41:09.503Z,98978.36
2023-05-10T01:44:01.310Z,98978.73
2023-05-10T01:46:40.066Z,98976.44
2023-05-10T01:49:12.173Z,98973.13
2023-05-10T01:51:47.642Z,98974.33
2023-05-10T01:54:19.329Z,98978.18
2023-05-10T01:56:51.155Z,98976.15
2023-05-10T01:59:20.574Z,98977.67
2023-05-10T02:01:49.365Z,98978.64
2023-05-10T02:04:19.826Z,98977.73
2023-05-10T02:06:48.583Z,98979.07
2023-05-10T02:09:17.128Z,98974.67
2023-05-10T02:11:44.741Z,98974.91
2023-05-10T02:14:14.757Z,98967.65
2023-05-10T02:16:43.688Z,98968.70
2023-05-10T02:19:12.780Z,98969.57
2023-05-10T02:21:42.152Z,98973.88
2023-05-10T02:24:11.260Z,98971.60
2023-05-10T02:26:39.124Z,98970.80
2023-05-10T02:29:08.108Z,98970.79
2023-05-10T02:31:36.016Z,98969.92
2023-05-10T02:34:04.583Z,98969.11
2023-05-10T02:36:32.421Z,98965.75
2023-05-10T02:39:02.592Z,98966.63
2023-05-10T02:41:33.114Z,98970.48
2023-05-10T02:44:03.473Z,98968.29
2023-05-10T02:46:31.164Z,98969.50
2023-05-10T02:48:58.779Z,98972.42
2023-05-10T02:51:32.203Z,98974.23
2023-05-10T02:54:04.858Z,98973.91
2023-05-10T02:56:40.465Z,98974.45
2023-05-10T02:59:07.666Z,98970.83
2023-05-10T03:01:35.416Z,98971.32
2023-05-10T03:04:02.537Z,98969.42
2023-05-10T03:06:29.850Z,98970.55
2023-05-10T03:08:58.133Z,98964.63
2023-05-10T03:11:47.800Z,98966.47
2023-05-10T03:14:27.439Z,98966.69
2023-05-10T03:17:10.866Z,98963.04
2023-05-10T03:19:51.407Z,98964.23
2023-05-10T03:23:00.646Z,98965.67
2023-05-10T03:25:30.357Z,98966.16
2023-05-10T03:27:57.911Z,98967.72
2023-05-10T03:30:26.095Z,98962.66
2023-05-10T03:32:53.429Z,98967.06
2023-05-10T03:35:21.329Z,98965.92
2023-05-10T03:37:48.275Z,98965.48
2023-05-10T03:40:16.175Z,98966.46
2023-05-10T03:42:43.716Z,98960.39
2023-05-10T03:45:11.387Z,98963.52
2023-05-10T03:47:38.467Z,98964.56
2023-05-10T03:50:06.623Z,98964.63
2023-05-10T03:52:33.876Z,98962.36
2023-05-10T03:55:01.029Z,98960.66
2023-05-10T03:57:28.491Z,98955.91
2023-05-10T03:59:55.954Z,98959.54
2023-05-10T04:02:24.219Z,98958.80
2023-05-10T04:04:51.590Z,98952.92
2023-05-10T04:07:18.749Z,98951.79
2023-05-10T04:09:45.902Z,98956.82
2023-05-10T04:12:12.857Z,98949.63
2023-05-10T04:14:39.778Z,98949.63
2023-05-10T04:17:06.901Z,98947.55
2023-05-10T04:19:34.113Z,98946.63
2023-05-10T04:22:03.324Z,98946.88
2023-05-10T04:24:30.371Z,98943.30
2023-05-10T04:26:57.985Z,98942.52
2023-05-10T04:29:25.299Z,98942.84
2023-05-10T04:31:52.495Z,98940.02
2023-05-10T04:34:21.243Z,98933.90
2023-05-10T04:36:48.499Z,98937.81
2023-05-10T04:39:15.774Z,98934.54
2023-05-10T04:41:42.962Z,98933.60
2023-05-10T04:44:09.978Z,98931.98
2023-05-10T04:46:37.485Z,98925.53
2023-05-10T04:49:04.899Z,98932.48
2023-05-10T04:51:32.460Z,98925.36
2023-05-10T04:54:06.238Z,98925.08
2023-05-10T04:56:33.893Z,98927.05
2023-05-10T04:59:01.221Z,98925.84
2023-05-10T05:01:28.295Z,98919.78
2023-05-10T05:03:55.676Z,98917.10
2023-05-10T05:06:22.711Z,98916.01
2023-05-10T05:08:49.915Z,98910.90
2023-05-10T05:11:17.806Z,98909.56
2023-05-10T05:13:45.267Z,98903.53
2023-05-10T05:16:12.702Z,98903.56
2023-05-10T05:18:39.981Z,98901.08
2023-05-10T05:21:20.106Z,98900.52
2023-05-10T05:23:47.209Z,98899.55
2023-05-10T05:26:15.353Z,98897.86
2023-05-10T05:28:42.617Z,98899.77
2023-05-10T05:31:09.738Z,98899.90
2023-05-10T05:33:37.748Z,98900.25
2023-05-10T05:36:06.626Z,98895.34
2023-05-10T05:38:33.902Z,98895.77
2023-05-10T05:41:01.266Z,98891.36
2023-05-10T05:43:28.378Z,98894.67
2023-05-10T05:45:58.167Z,98895.58
2023-05-10T05:48:25.382Z,98895.14
2023-05-10T05:50:56.215Z,98895.73
2023-05-10T05:53:23.994Z,98899.85
2023-05-10T05:55:55.677Z,98900.54
2023-05-10T05:58:23.678Z,98899.16
2023-05-10T06:00:52.453Z,98898.80
2023-05-10T06:03:20.253Z,98899.11
2023-05-10T06:05:47.626Z,98897.43
2023-05-10T06:08:14.780Z,98897.68
2023-05-10T06:10:41.903Z,98899.98
2023-05-10T06:13:09.393Z,98896.64
2023-05-10T06:15:36.637Z,98891.15
2023-05-10T06:18:04.025Z,98891.58
2023-05-10T06:20:32.020Z,98887.05
2023-05-10T06:22:59.646Z,98887.27
2023-05-10T06:25:26.803Z,98887.94
2023-05-10T06:27:57.727Z,98890.16
2023-05-10T06:30:28.672Z,98887.03
2023-05-10T06:32:55.967Z,98886.27
2023-05-10T06:35:23.468Z,98884.30
2023-05-10T06:37:51.517Z,98883.58
2023-05-10T06:40:18.827Z,98887.00
2023-05-10T06:42:46.836Z,98886.11
2023-05-10T06:45:16.060Z,98884.60
2023-05-10T06:47:44.084Z,98886.40
2023-05-10T06:50:11.911Z,98891.37
2023-05-10T06:52:39.724Z,98887.40
2023-05-10T06:55:07.556Z,98888.86
2023-05-10T06:57:35.121Z,98890.20
2023-05-10T07:00:04.688Z,98886.37
2023-05-10T07:02:31.769Z,98881.66
2023-05-10T07:05:01.690Z,98882.81
2023-05-10T07:07:30.283Z,98880.55
2023-05-10T07:09:58.059Z,98876.80
2023-05-10T07:12:25.775Z,98881.70
2023-05-10T07:14:52.900Z,98877.45
2023-05-10T07:17:20.321Z,98873.96
2023-05-10T07:19:47.569Z,98869.04
2023-05-10T07:22:15.974Z,98876.27
2023-05-10T07:24:43.330Z,98875.48
2023-05-10T07:27:10.403Z,98868.18
2023-05-10T07:29:37.879Z,98873.23
2023-05-10T07:32:06.272Z,98867.85
2023-05-10T07:34:33.316Z,98874.36
2023-05-10T07:37:00.994Z,98872.05
2023-05-10T07:39:28.519Z,98869.80
2023-05-10T07:41:56.263Z,98867.48
2023-05-10T07:44:23.736Z,98871.55
2023-05-10T07:46:50.967Z,98872.73
2023-05-10T07:49:18.065Z,98866.78
2023-05-10T07:51:44.981Z,98867.48
2023-05-10T07:54:13.067Z,98868.02
2023-05-10T07:56:42.431Z,98870.36
2023-05-10T07:59:10.682Z,98869.52
2023-05-10T08:01:39.206Z,98871.05
2023-05-10T08:04:06.366Z,98871.20
2023-05-10T08:06:33.381Z,98866.86
2023-05-10T08:09:00.355Z,98867.30
2023-05-10T08:11:28.324Z,98864.34
2023-05-10T08:13:55.277Z,98860.20
2023-05-10T08:16:22.515Z,98858.65
2023-05-10T08:18:51.197Z,98863.42
2023-05-10T08:21:18.369Z,98863.27
2023-05-10T08:23:45.415Z,98859.12
2023-05-10T08:26:12.541Z,98855.86
2023-05-10T08:28:39.658Z,98848.97
2023-05-10T08:31:06.945Z,98856.64
2023-05-10T08:33:34.288Z,98851.60
2023-05-10T08:36:01.602Z,98850.16
2023-05-10T08:38:28.854Z,98844.19
2023-05-10T08:40:59.438Z,98845.34
2023-05-10T08:43:29.578Z,98842.80
2023-05-10T08:46:00.464Z,98842.86
2023-05-10T08:48:30.179Z,98842.30
2023-05-10T08:51:01.342Z,98840.59
2023-05-10T08:53:29.709Z,98836.70
2023-05-10T08:55:57.882Z,98838.30
2023-05-10T08:58:26.290Z,98835.38
2023-05-10T09:00:53.941Z,98836.83
2023-05-10T09:03:21.499Z,98837.82
2023-05-10T09:05:50.096Z,98845.33
2023-05-10T09:08:18.274Z,98838.44
2023-05-10T09:10:47.885Z,98834.44
2023-05-10T09:13:18.309Z,98832.34
2023-05-10T09:15:46.483Z,98835.92
2023-05-10T09:18:13.957Z,98827.63
2023-05-10T09:20:41.604Z,98827.92
2023-05-10T09:23:09.293Z,98827.09
2023-05-10T09:25:37.666Z,98820.58
2023-05-10T09:28:08.967Z,98827.42
2023-05-10T09:30:36.800Z,98824.79
2023-05-10T09:33:04.149Z,98819.28
2023-05-10T09:35:33.851Z,98813.56
2023-05-10T09:38:05.496Z,98814.73
2023-05-10T09:40:33.072Z,98806.95
2023-05-10T09:43:02.315Z,98812.22
2023-05-10T09:45:37.041Z,98811.11
2023-05-10T09:48:06.464Z,98809.65
2023-05-10T09:50:34.602Z,98804.55
2023-05-10T09:53:03.900Z,98802.02
2023-05-10T09:55:40.318Z,98797.24
2023-05-10T09:58:10.754Z,98802.16
2023-05-10T10:00:40.001Z,98798.39
2023-05-10T10:03:14.486Z,98793.42
2023-05-10T10:05:45.499Z,98789.48
2023-05-10T10:08:13.646Z,98786.52
2023-05-10T10:10:41.559Z,98785.17
2023-05-10T10:13:09.016Z,98781.85
2023-05-10T10:15:36.214Z,98782.73
2023-05-10T10:18:05.686Z,98783.52
2023-05-10T10:20:33.014Z,98779.41
2023-05-10T10:23:00.379Z,98777.60
2023-05-10T10:25:27.648Z,98778.45
2023-05-10T10:27:54.832Z,98777.42
2023-05-10T10:30:49.573Z,98775.14
2023-05-10T10:33:38.117Z,98769.78
2023-05-10T10:36:06.085Z,98765.82
2023-05-10T10:38:48.437Z,98761.61
2023-05-10T10:41:30.720Z,98758.29
2023-05-10T10:44:27.166Z,98762.39
2023-05-10T10:47:11.966Z,98759.14
2023-05-10T10:50:02.888Z,98753.98
2023-05-10T10:52:41.478Z,98748.98
2023-05-10T10:55:14.127Z,98741.46
2023-05-10T10:57:41.537Z,98739.27
2023-05-10T11:00:22.208Z,98743.75
2023-05-10T11:02:54.384Z,98743.85
2023-05-10T11:05:33.489Z,98741.23
2023-05-10T11:08:08.682Z,98738.60
2023-05-10T11:10:35.989Z,98734.52
2023-05-10T11:13:08.917Z,98732.83
2023-05-10T11:15:48.886Z,98730.41
2023-05-10T11:18:29.414Z,98727.27
2023-05-10T11:21:05.442Z,98725.05
2023-05-10T11:23:47.945Z,98716.49
2023-05-10T11:26:16.446Z,98717.66
2023-05-10T11:28:50.080Z,98713.39
2023-05-10T11:31:19.188Z,98712.91
2023-05-10T11:33:51.237Z,98715.85
2023-05-10T11:36:20.008Z,98710.97
2023-05-10T11:38:48.010Z,98708.23
2023-05-10T11:41:17.381Z,98709.53
2023-05-10T11:43:48.109Z,98705.71
2023-05-10T11:46:17.471Z,98713.65
2023-05-10T11:48:44.786Z,98705.56
2023-05-10T11:51:12.156Z,98708.92
2023-05-10T11:53:39.400Z,98705.21
2023-05-10T11:56:11.216Z,98703.04
2023-05-10T11:58:39.652Z,98703.73
2023-05-10T12:01:08.344Z,98703.55
2023-05-10T12:03:36.205Z,98701.29
2023-05-10T12:06:04.546Z,98696.49
2023-05-10T12:08:31.650Z,98697.40
2023-05-10T12:11:10.928Z,98700.21
2023-05-10T12:13:40.739Z,98694.48
2023-05-10T12:16:21.823Z,98693.86
2023-05-10T12:18:54.072Z,98696.45
2023-05-10T12:21:59.264Z,98694.63
2023-05-10T12:24:26.460Z,98696.66
2023-05-10T12:26:53.790Z,98689.98
2023-05-10T12:29:21.037Z,98682.60
2023-05-10T12:31:57.508Z,98680.91
2023-05-10T12:34:31.119Z,98690.35
2023-05-10T12:36:59.394Z,98680.66
2023-05-10T12:39:26.804Z,98681.89
2023-05-10T12:41:53.982Z,98675.43
2023-05-10T12:44:21.184Z,98674.08
2023-05-10T12:46:48.423Z,98666.05
2023-05-10T12:49:15.580Z,98663.04
2023-05-10T12:51:42.646Z,98659.33
2023-05-10T12:54:10.304Z,98661.84
2023-05-10T12:56:37.562Z,98660.21
2023-05-10T12:59:04.921Z,98662.39
2023-05-10T13:01:32.325Z,98661.99
2023-05-10T13:04:00.563Z,98661.98
2023-05-10T13:06:27.510Z,98666.20
2023-05-10T13:08:54.671Z,98658.08
2023-05-10T13:11:22.045Z,98658.68
2023-05-10T13:13:49.283Z,98654.98
2023-05-10T13:16:16.241Z,98653.80
2023-05-10T13:18:43.563Z,98649.16
2023-05-10T13:21:11.882Z,98648.19
2023-05-10T13:23:38.958Z,98641.50
2023-05-10T13:26:05.902Z,98633.45
2023-05-10T13:28:32.886Z,98630.92
2023-05-10T13:31:00.580Z,98627.58
2023-05-10T13:33:27.455Z,98623.08
2023-05-10T13:35:55.776Z,98627.58
2023-05-10T13:38:22.882Z,98621.81
2023-05-10T13:40:53.024Z,98621.84
2023-05-10T13:43:20.381Z,98623.10
2023-05-10T13:45:47.288Z,98622.13
2023-05-10T13:48:14.190Z,98619.61
2023-05-10T13:50:41.174Z,98614.84
2023-05-10T13:53:08.288Z,98615.39
2023-05-10T13:55:36.281Z,98613.36
2023-05-10T13:58:03.173Z,98618.20
2023-05-10T14:00:30.382Z,98620.48
2023-05-10T14:02:57.325Z,98617.88
2023-05-10T14:05:26.221Z,98617.63
2023-05-10T14:07:54.197Z,98611.40
2023-05-10T14:10:21.146Z,98605.77
2023-05-10T14:12:48.347Z,98608.18
2023-05-10T14:15:15.562Z,98603.59
2023-05-10T14:17:42.743Z,98606.09
2023-05-10T14:20:11.093Z,98601.06
2023-05-10T14:22:38.153Z,98599.33
2023-05-10T14:25:05.613Z,98597.14
2023-05-10T14:27:32.976Z,98600.45
2023-05-10T14:30:00.200Z,98598.62
2023-05-10T14:32:28.415Z,98600.52
2023-05-10T14:34:56.281Z,98593.92
2023-05-10T14:37:23.334Z,98586.92
2023-05-10T14:39:50.481Z,98586.86
2023-05-10T14:42:17.655Z,98588.68
2023-05-10T14:44:44.904Z,98594.39
2023-05-10T14:47:12.398Z,98597.86
2023-05-10T14:49:39.626Z,98591.95
2023-05-10T14:52:07.391Z,98594.51
2023-05-10T14:54:34.545Z,98589.87
2023-05-10T14:57:01.901Z,98588.23
2023-05-10T14:59:29.157Z,98590.73
2023-05-10T15:01:56.827Z,98595.00
2023-05-10T15:04:26.019Z,98591.88
2023-05-10T15:06:59.631Z,98593.36
2023-05-10T15:09:28.127Z,98592.80
2023-05-10T15:11:55.579Z,98588.15
2023-05-10T15:14:23.456Z,98591.34
2023-05-10T15:16:50.616Z,98596.35
2023-05-10T15:19:17.758Z,98591.39
2023-05-10T15:21:45.672Z,98589.86
2023-05-10T15:24:12.789Z,98586.11
2023-05-10T15:26:39.853Z,98590.32
2023-05-10T15:29:07.108Z,98584.72
2023-05-10T15:31:36.362Z,98584.56
2023-05-10T15:34:03.769Z,98576.89
2023-05-10T15:36:32.564Z,98578.64
2023-05-10T15:38:59.826Z,98577.84
2023-05-10T15:41:26.809Z,98577.50
2023-05-10T15:43:54.660Z,98576.95
2023-05-10T15:46:22.406Z,98581.70
2023-05-10T15:48:49.776Z,98578.40
2023-05-10T15:51:16.939Z,98581.31
2023-05-10T15:53:56.603Z,98579.11
2023-05-10T15:56:31.100Z,98578.02
2023-05-10T15:58:58.152Z,98579.85
2023-05-10T16:01:25.823Z,98583.80
2023-05-10T16:03:53.076Z,98583.61
2023-05-10T16:06:20.343Z,98587.08
2023-05-10T16:08:47.294Z,98582.49
2023-05-10T16:11:14.550Z,98582.87
2023-05-10T16:13:41.605Z,98580.08
2023-05-10T16:20:37.190Z,98577.04
2023-05-10T16:23:05.970Z,98578.48
2023-05-10T16:25:33.334Z,98577.29
2023-05-10T16:28:00.909Z,98575.91
2023-05-10T16:30:29.899Z,98578.06
2023-05-10T16:32:58.460Z,98577.82
2023-05-10T16:35:26.253Z,98578.35
2023-05-10T16:37:53.510Z,98582.61
2023-05-10T16:40:21.179Z,98583.27
2023-05-10T16:42:48.274Z,98586.71
2023-05-10T16:45:16.693Z,98593.27
2023-05-10T16:47:44.296Z,98588.16
2023-05-10T16:50:11.855Z,98590.17
2023-05-10T16:52:39.209Z,98588.25
2023-05-10T16:55:06.876Z,98593.44
2023-05-10T16:57:34.852Z,98598.49
2023-05-10T17:00:03.680Z,98599.27
2023-05-10T17:02:30.944Z,98601.14
2023-05-10T17:04:58.169Z,98603.30
2023-05-10T17:07:26.441Z,98608.01
2023-05-10T17:09:53.713Z,98613.34
2023-05-10T17:12:20.977Z,98615.42
2023-05-10T17:14:48.119Z,98615.38
2023-05-10T17:17:15.278Z,98623.64
2023-05-10T17:19:45.202Z,98623.14
2023-05-10T17:22:13.490Z,98620.67
2023-05-10T17:24:40.731Z,98620.52
2023-05-10T17:27:07.888Z,98620.70
2023-05-10T17:29:34.933Z,98623.58
2023-05-10T17:32:02.572Z,98623.84
2023-05-10T17:34:29.665Z,98628.14
2023-05-10T17:36:57.644Z,98629.39
2023-05-10T17:39:24.917Z,98631.63
2023-05-10T17:41:52.150Z,98631.48
2023-05-10T17:44:19.512Z,98633.52
2023-05-10T17:46:47.709Z,98635.83
2023-05-10T17:49:15.055Z,98640.89
2023-05-10T17:51:43.637Z,98639.66
2023-05-10T17:54:10.785Z,98645.48
2023-05-10T17:56:37.745Z,98650.17
2023-05-10T17:59:05.225Z,98650.33
2023-05-10T18:01:32.404Z,98655.38
2023-05-10T18:04:00.031Z,98657.55
2023-05-10T18:06:27.388Z,98658.29
2023-05-10T18:08:54.750Z,98660.20
2023-05-10T18:11:25.279Z,98665.21
2023-05-10T18:13:52.335Z,98664.60
2023-05-10T18:16:19.607Z,98670.57
2023-05-10T18:18:47.000Z,98675.24
2023-05-10T18:21:14.315Z,98676.80
2023-05-10T18:23:41.466Z,98678.47
2023-05-10T18:26:08.979Z,98679.47
2023-05-10T18:28:36.371Z,98683.27
2023-05-10T18:31:03.485Z,98686.17
2023-05-10T18:33:30.714Z,98691.33
2023-05-10T18:35:57.854Z,98694.09
2023-05-10T18:38:25.333Z,98699.29
2023-05-10T18:40:57.392Z,98694.14
2023-05-10T18:43:24.547Z,98694.96
2023-05-10T18:45:52.157Z,98695.39
2023-05-10T18:48:19.373Z,98700.17
2023-05-10T18:50:46.421Z,98698.31
2023-05-10T18:53:13.686Z,98698.53
2023-05-10T18:55:40.985Z,98700.68
2023-05-10T18:58:08.611Z,98698.61
2023-05-10T19:00:35.676Z,98700.50
2023-05-10T19:03:03.489Z,98700.60
2023-05-10T19:05:31.210Z,98702.94
2023-05-10T19:07:58.462Z,98704.24
2023-05-10T19:10:25.719Z,98703.96
2023-05-10T19:12:52.872Z,98705.47
2023-05-10T19:15:21.732Z,98708.86
2023-05-10T19:17:51.033Z,98711.53
2023-05-10T19:20:18.335Z,98714.48
2023-05-10T19:23:02.312Z,98715.27
2023-05-10T19:25:34.757Z,98718.52
2023-05-10T19:28:02.214Z,98718.54
2023-05-10T19:30:31.988Z,98721.05
2023-05-10T19:32:59.304Z,98724.47
2023-05-10T19:35:26.641Z,98724.01
2023-05-10T19:37:53.798Z,98725.98
2023-05-10T19:40:21.179Z,98727.36
2023-05-10T19:42:48.216Z,98726.83
2023-05-10T19:45:15.794Z,98726.84
2023-05-10T19:47:43.436Z,98727.77
2023-05-10T19:50:11.886Z,98727.17
2023-05-10T19:52:39.189Z,98721.90
2023-05-10T19:55:07.467Z,98728.19
2023-05-10T19:57:34.530Z,98727.41
2023-05-10T20:00:02.306Z,98725.23
2023-05-10T20:02:38.169Z,98732.07
2023-05-10T20:05:06.059Z,98735.87
2023-05-10T20:07:33.283Z,98736.41
2023-05-10T20:10:00.291Z,98737.92
2023-05-10T20:12:27.914Z,98738.54
2023-05-10T20:14:55.154Z,98740.61
2023-05-10T20:17:22.271Z,98742.19
2023-05-10T20:19:49.461Z,98743.94
2023-05-10T20:22:16.640Z,98748.80
2023-05-10T20:24:43.989Z,98748.23
2023-05-10T20:27:12.584Z,98746.47
2023-05-10T20:29:39.834Z,98752.95
2023-05-10T20:32:06.952Z,98754.53
2023-05-10T20:34:34.957Z,98756.30
2023-05-10T20:37:01.964Z,98755.73
2023-05-10T20:39:29.686Z,98755.82
2023-05-10T20:41:56.934Z,98757.30
2023-05-10T20:44:23.893Z,98758.33
2023-05-10T20:46:51.046Z,98759.77
2023-05-10T20:49:19.222Z,98760.60
2023-05-10T20:51:46.587Z,98765.18
2023-05-10T20:54:13.944Z,98763.20
2023-05-10T20:56:41.365Z,98763.39
2023-05-10T20:59:08.419Z,98762.31
2023-05-10T21:01:35.553Z,98765.30
2023-05-10T21:04:03.606Z,98764.60
2023-05-10T21:06:31.482Z,98767.73
2023-05-10T21:08:58.620Z,98765.62
2023-05-10T21:11:25.801Z,98767.68
2023-05-10T21:13:53.038Z,98769.65
2023-05-10T21:16:20.415Z,98770.77
2023-05-10T21:18:47.704Z,98770.01
2023-05-10T21:21:15.014Z,98776.77
2023-05-10T21:23:42.166Z,98772.48
2023-05-10T21:26:09.319Z,98777.44
2023-05-10T21:28:38.395Z,98785.10
2023-05-10T21:31:07.226Z,98788.11
2023-05-10T21:33:34.792Z,98787.66
2023-05-10T21:36:01.764Z,98790.81
2023-05-10T21:38:29.106Z,98790.52
2023-05-10T21:40:56.453Z,98793.19
2023-05-10T21:43:23.429Z,98795.82
2023-05-10T21:45:50.486Z,98796.42
2023-05-10T21:48:17.527Z,98796.79
2023-05-10T21:50:47.129Z,98796.44
2023-05-10T21:53:14.180Z,98792.79
2023-05-10T21:55:41.539Z,98795.20
2023-05-10T21:58:08.490Z,98797.70
2023-05-10T22:00:35.439Z,98799.63
2023-05-10T22:03:02.667Z,98800.37
2023-05-10T22:05:30.071Z,98802.83
2023-05-10T22:07:57.328Z,98805.73
2023-05-10T22:10:24.372Z,98806.68
2023-05-10T22:12:51.631Z,98807.21
2023-05-10T22:15:18.786Z,98805.98
2023-05-10T22:17:45.996Z,98805.62
2023-05-10T22:20:13.418Z,98806.23
2023-05-10T22:22:40.671Z,98806.80
2023-05-10T22:25:08.227Z,98805.31
2023-05-10T22:27:36.195Z,98807.11
2023-05-10T22:30:04.104Z,98806.45
2023-05-10T22:32:31.794Z,98807.23
2023-05-10T22:34:59.098Z,98804.66
2023-05-10T22:37:26.579Z,98806.94
2023-05-10T22:39:53.736Z,98800.83
2023-05-10T22:42:20.778Z,98803.45
2023-05-10T22:44:47.932Z,98805.88
2023-05-10T22:47:16.003Z,98807.10
2023-05-10T22:49:43.055Z,98802.38
2023-05-10T22:52:10.424Z,98805.20
2023-05-10T22:54:37.607Z,98802.00
2023-05-10T22:57:05.640Z,98802.14
2023-05-10T22:59:33.109Z,98801.83
2023-05-10T23:02:00.493Z,98800.27
2023-05-10T23:04:27.749Z,98800.71
2023-05-10T23:06:54.890Z,98799.64
2023-05-10T23:09:22.039Z,98798.57
2023-05-10T23:11:48.912Z,98805.08
2023-05-10T23:14:16.476Z,98802.31
2023-05-10T23:16:43.567Z,98801.98
2023-05-10T23:19:10.671Z,98801.43
2023-05-10T23:21:37.938Z,98800.41
2023-05-10T23:24:05.825Z,98803.23
2023-05-10T23:26:32.951Z,98799.56
2023-05-10T23:29:01.435Z,98800.59
2023-05-10T23:31:28.944Z,98800.55
2023-05-10T23:33:56.294Z,98798.83
2023-05-10T23:36:23.310Z,98798.74
2023-05-10T23:38:50.511Z,98798.55
2023-05-10T23:41:17.522Z,98797.11
2023-05-10T23:43:44.670Z,98798.02
2023-05-10T23:46:11.855Z,98799.77
2023-05-10T23:48:38.940Z,98797.38
2023-05-10T23:51:06.038Z,98797.35
2023-05-10T23:53:33.406Z,98797.98
2023-05-10T23:56:00.571Z,98801.16
2023-05-10T23:58:27.720Z,98803.27
